createdAt,value
2023-02-18T00:00:44.418Z,9.40
2023-02-18T00:05:47.337Z,17.60
2023-02-18T00:10:50.244Z,8.67
2023-02-18T00:16:13.701Z,8.40
2023-02-18T00:21:16.637Z,9.30
2023-02-18T00:26:20.367Z,14.33
2023-02-18T00:31:26.666Z,9.47
2023-02-18T00:36:30.152Z,17.53
2023-02-18T00:41:45.476Z,10.60
2023-02-18T00:46:50.016Z,9.43
2023-02-18T00:51:52.815Z,11.17
2023-02-18T00:56:55.596Z,14.90
2023-02-18T01:01:59.835Z,14.23
2023-02-18T01:07:21.268Z,19.07
2023-02-18T01:12:24.253Z,8.57
2023-02-18T01:17:28.686Z,6.87
2023-02-18T01:22:31.533Z,18.77
2023-02-18T01:27:34.471Z,17.00
2023-02-18T01:32:58.927Z,11.40
2023-02-18T01:38:02.729Z,13.67
2023-02-18T01:43:05.652Z,14.27
2023-02-18T01:48:13.931Z,21.50
2023-02-18T01:53:20.265Z,23.20
2023-02-18T01:58:39.505Z,30.10
2023-02-18T02:03:44.099Z,18.03
2023-02-18T02:08:47.994Z,24.13
2023-02-18T02:14:03.697Z,23.80
2023-02-18T02:19:27.899Z,27.97
2023-02-18T02:25:04.074Z,33.23
2023-02-18T02:30:57.658Z,36.77
2023-02-18T02:36:05.280Z,31.20
2023-02-18T02:41:25.895Z,26.10
2023-02-18T02:46:36.547Z,33.00
2023-02-18T02:51:44.418Z,32.53
2023-02-18T02:56:47.978Z,28.87
2023-02-18T03:02:09.529Z,39.03
2023-02-18T03:07:28.753Z,39.50
2023-02-18T03:12:36.475Z,35.90
2023-02-18T03:17:43.049Z,27.50
2023-02-18T03:22:48.903Z,25.57
2023-02-18T03:27:54.735Z,39.83
2023-02-18T03:33:03.342Z,32.23
2023-02-18T03:38:11.100Z,29.20
2023-02-18T03:43:14.028Z,30.60
2023-02-18T03:48:17.370Z,26.37
2023-02-18T03:53:21.969Z,34.80
2023-02-18T03:58:27.994Z,28.83
2023-02-18T04:03:32.438Z,24.60
2023-02-18T04:08:36.796Z,21.83
2023-02-18T04:13:40.752Z,15.80
2023-02-18T04:18:55.364Z,15.27
2023-02-18T04:24:01.154Z,9.97
2023-02-18T04:29:05.213Z,10.53
2023-02-18T04:34:08.189Z,11.13
2023-02-18T04:39:12.371Z,15.30
2023-02-18T04:44:21.381Z,21.83
2023-02-18T04:49:24.205Z,18.07
2023-02-18T04:54:28.457Z,17.00
2023-02-18T04:59:31.415Z,21.00
2023-02-18T05:04:34.260Z,27.00
2023-02-18T05:09:40.657Z,24.80
2023-02-18T05:14:52.602Z,20.63
2023-02-18T05:20:03.836Z,27.23
2023-02-18T05:25:08.562Z,25.77
2023-02-18T05:30:12.039Z,24.93
2023-02-18T05:35:17.226Z,24.37
2023-02-18T05:40:30.476Z,20.73
2023-02-18T05:45:37.522Z,30.40
2023-02-18T05:50:40.547Z,15.60
2023-02-18T05:55:44.686Z,17.13
2023-02-18T06:00:48.551Z,19.20
2023-02-18T06:06:04.804Z,28.70
2023-02-18T06:11:10.213Z,21.10
2023-02-18T06:16:13.195Z,23.83
2023-02-18T06:21:16.220Z,29.63
2023-02-18T06:26:20.636Z,18.10
2023-02-18T06:31:44.527Z,18.73
2023-02-18T06:36:47.564Z,17.90
2023-02-18T06:41:51.884Z,13.93
2023-02-18T06:46:54.834Z,19.60
2023-02-18T06:51:57.787Z,20.77
2023-02-18T06:57:20.756Z,22.40
2023-02-18T07:02:26.357Z,26.40
2023-02-18T07:07:32.352Z,20.73
2023-02-18T07:12:40.860Z,14.87
2023-02-18T07:17:43.883Z,20.57
2023-02-18T07:22:53.254Z,17.17
2023-02-18T07:28:00.099Z,15.07
2023-02-18T07:33:04.084Z,15.00
2023-02-18T07:38:09.835Z,16.30
2023-02-18T07:43:15.344Z,18.77
2023-02-18T07:48:30.817Z,11.10
2023-02-18T07:53:34.057Z,14.67
2023-02-18T07:58:40.036Z,9.53
2023-02-18T08:03:46.622Z,10.73
2023-02-18T08:08:49.950Z,22.53
2023-02-18T08:14:15.844Z,9.50
2023-02-18T08:19:25.163Z,12.97
2023-02-18T08:24:28.138Z,9.77
2023-02-18T08:29:37.751Z,21.80
2023-02-18T08:34:43.627Z,16.00
2023-02-18T08:39:46.860Z,14.20
2023-02-18T08:44:51.342Z,8.33
2023-02-18T08:49:57.723Z,10.67
2023-02-18T08:55:02.591Z,9.37
2023-02-18T09:00:10.921Z,26.80
2023-02-18T09:05:22.818Z,13.50
2023-02-18T09:10:26.257Z,8.23
2023-02-18T09:15:32.314Z,8.30
2023-02-18T09:20:40.762Z,13.10
2023-02-18T09:25:48.749Z,11.30
2023-02-18T09:31:08.097Z,12.23
2023-02-18T09:36:11.940Z,10.23
2023-02-18T09:41:21.628Z,6.03
2023-02-18T09:46:35.210Z,17.00
2023-02-18T09:51:42.193Z,6.53
2023-02-18T09:56:46.433Z,18.00
2023-02-18T10:01:54.790Z,8.30
2023-02-18T10:07:00.193Z,19.93
2023-02-18T10:12:14.784Z,8.83
2023-02-18T10:17:20.232Z,12.97
2023-02-18T10:22:27.546Z,10.13
2023-02-18T10:27:35.442Z,14.63
2023-02-18T10:32:56.541Z,10.63
2023-02-18T10:38:08.081Z,11.77
2023-02-18T10:43:15.842Z,6.97
2023-02-18T10:48:38.903Z,6.37
2023-02-18T10:53:47.257Z,14.70
2023-02-18T10:58:55.719Z,8.00
2023-02-18T11:04:15.709Z,5.20
2023-02-18T11:09:32.057Z,3.57
2023-02-18T11:15:08.690Z,19.13
2023-02-18T11:20:28.354Z,8.80
2023-02-18T11:25:38.002Z,13.10
2023-02-18T11:30:45.929Z,11.50
2023-02-18T11:41:35.548Z,19.57
2023-02-18T11:46:40.264Z,8.27
2023-02-18T11:51:57.411Z,14.27
2023-02-18T12:02:44.301Z,11.20
2023-02-18T12:07:52.045Z,6.40
2023-02-18T12:19:00.665Z,9.20
2023-02-18T12:24:14.500Z,8.67
2023-02-18T12:29:34.647Z,6.63
2023-02-18T12:34:54.639Z,9.63
2023-02-18T12:40:31.963Z,12.37
2023-02-18T12:45:58.139Z,9.20
2023-02-18T12:51:30.390Z,9.57
2023-02-18T12:56:53.616Z,8.50
2023-02-18T13:02:06.085Z,6.17
2023-02-18T13:07:33.056Z,11.13
2023-02-18T13:12:43.883Z,6.13
2023-02-18T13:17:47.237Z,10.20
2023-02-18T13:22:51.029Z,23.10
2023-02-18T13:28:07.190Z,11.33
2023-02-18T13:33:14.959Z,6.67
2023-02-18T13:38:37.170Z,7.03
2023-02-18T13:43:44.650Z,7.60
2023-02-18T13:48:53.456Z,4.70
2023-02-18T13:54:02.093Z,2.20
2023-02-18T13:59:17.392Z,8.27
2023-02-18T14:04:51.677Z,8.13
2023-02-18T14:09:56.076Z,9.63
2023-02-18T14:15:00.872Z,2.73
2023-02-18T14:20:48.394Z,4.80
2023-02-18T14:25:53.674Z,11.33
2023-02-18T14:31:31.109Z,7.57
2023-02-18T14:36:38.400Z,7.53
2023-02-18T14:41:46.468Z,12.50
2023-02-18T14:47:08.639Z,5.93
2023-02-18T14:52:17.463Z,12.10
2023-02-18T14:57:25.438Z,5.23
2023-02-18T15:02:31.907Z,11.74
2023-02-18T15:07:34.748Z,9.47
2023-02-18T15:12:37.606Z,12.60
2023-02-18T15:17:46.243Z,6.80
2023-02-18T15:22:49.684Z,9.53
2023-02-18T15:27:54.976Z,8.43
2023-02-18T15:33:02.134Z,19.17
2023-02-18T15:38:05.323Z,13.53
2023-02-18T15:43:08.965Z,7.00
2023-02-18T15:48:23.494Z,13.37
2023-02-18T15:53:26.931Z,10.10
2023-02-18T15:58:33.224Z,7.87
2023-02-18T16:03:46.641Z,12.00
2023-02-18T16:08:57.604Z,7.87
2023-02-18T16:14:00.582Z,14.53
2023-02-18T16:19:07.662Z,8.77
2023-02-18T16:24:27.673Z,5.00
2023-02-18T16:29:36.876Z,4.80
2023-02-18T16:34:43.290Z,8.37
2023-02-18T16:39:46.152Z,9.10
2023-02-18T16:44:50.595Z,6.73
2023-02-18T16:49:55.855Z,4.43
2023-02-18T16:54:59.692Z,6.03
2023-02-18T17:00:03.564Z,11.90
2023-02-18T17:05:20.684Z,8.60
2023-02-18T17:10:28.472Z,3.27
2023-02-18T17:15:33.186Z,11.60
2023-02-18T17:20:37.896Z,4.17
2023-02-18T17:25:41.944Z,8.00
2023-02-18T17:30:44.744Z,6.50
2023-02-18T17:35:48.907Z,6.97
2023-02-18T17:40:51.857Z,10.77
2023-02-18T17:45:57.587Z,13.73
2023-02-18T17:51:02.168Z,13.97
2023-02-18T17:56:05.482Z,11.17
2023-02-18T18:01:10.968Z,8.27
2023-02-18T18:06:18.491Z,12.37
2023-02-18T18:11:23.186Z,9.63
2023-02-18T18:16:26.090Z,7.70
2023-02-18T18:21:32.785Z,10.17
2023-02-18T18:26:35.615Z,9.87
2023-02-18T18:31:38.598Z,7.20
2023-02-18T18:36:42.818Z,12.93
2023-02-18T18:41:45.655Z,10.13
2023-02-18T18:46:48.471Z,16.00
2023-02-18T18:51:52.688Z,11.33
2023-02-18T18:56:55.633Z,11.17
2023-02-18T19:01:58.571Z,18.60
2023-02-18T19:07:02.680Z,10.07
2023-02-18T19:12:06.018Z,19.60
2023-02-18T19:17:08.748Z,12.40
2023-02-18T19:22:13.905Z,17.70
2023-02-18T19:27:17.210Z,10.87
2023-02-18T19:32:21.090Z,15.67
2023-02-18T19:37:25.656Z,23.10
2023-02-18T19:42:28.763Z,19.27
2023-02-18T19:47:31.919Z,21.40
2023-02-18T19:52:36.142Z,15.57
2023-02-18T19:57:39.376Z,24.73
2023-02-18T20:02:42.594Z,23.33
2023-02-18T20:07:47.105Z,19.97
2023-02-18T20:12:52.961Z,23.27
2023-02-18T20:17:55.847Z,24.30
2023-02-18T20:23:00.047Z,19.40
2023-02-18T20:28:02.836Z,23.60
2023-02-18T20:33:05.706Z,30.50
2023-02-18T20:38:09.992Z,20.93
2023-02-18T20:43:12.808Z,20.57
2023-02-18T20:48:16.198Z,17.93
2023-02-18T20:53:22.676Z,16.87
2023-02-18T20:58:25.671Z,12.90
2023-02-18T21:03:28.897Z,20.17
2023-02-18T21:08:33.555Z,17.37
2023-02-18T21:13:36.505Z,27.20
2023-02-18T21:18:41.780Z,24.50
2023-02-18T21:23:46.030Z,24.20
2023-02-18T21:28:49.731Z,17.20
2023-02-18T21:33:52.927Z,23.70
2023-02-18T21:38:58.570Z,14.27
2023-02-18T21:44:01.521Z,34.93
2023-02-18T21:49:06.586Z,13.47
2023-02-18T21:54:10.803Z,17.80
2023-02-18T21:59:13.725Z,18.43
2023-02-18T22:04:16.777Z,19.87
2023-02-18T22:09:20.992Z,22.50
2023-02-18T22:14:23.959Z,25.70
2023-02-18T22:19:26.971Z,15.23
2023-02-18T22:24:31.515Z,25.97
2023-02-18T22:29:34.428Z,21.50
2023-02-18T22:34:37.225Z,11.47
2023-02-18T22:39:41.548Z,18.97
2023-02-18T22:44:44.536Z,13.23
2023-02-18T22:49:47.269Z,19.20
2023-02-18T22:54:52.151Z,11.50
2023-02-18T22:59:55.404Z,19.83
2023-02-18T23:04:58.145Z,10.60
2023-02-18T23:10:02.406Z,11.00
2023-02-18T23:15:05.531Z,16.47
2023-02-18T23:20:09.027Z,9.47
2023-02-18T23:25:14.253Z,17.00
2023-02-18T23:30:17.075Z,10.97
2023-02-18T23:35:19.944Z,14.17
2023-02-18T23:40:24.089Z,24.10
2023-02-18T23:45:27.204Z,9.13
2023-02-18T23:50:29.966Z,11.30
2023-02-18T23:55:34.161Z,12.47
